sensor_id;sensor_type;location;lat;lon;timestamp;pressure;altitude;pressure_sealevel;temperature;humidity
57192;BME280;43052;52.588;13.396;2023-01-26T08:36:20;101836.06;;;-0.43;79.45
57192;BME280;43052;52.588;13.396;2023-01-26T08:38:45;101832.88;;;0.24;80.73
57192;BME280;43052;52.588;13.396;2023-01-26T08:41:11;101830.38;;;0.75;80.21
57192;BME280;43052;52.588;13.396;2023-01-26T08:43:37;101837.69;;;1.01;79.81
57192;BME280;43052;52.588;13.396;2023-01-26T08:46:02;101840.56;;;1.07;79.71
57192;BME280;43052;52.588;13.396;2023-01-26T08:48:28;101835.59;;;1.10;79.53
57192;BME280;43052;52.588;13.396;2023-01-26T08:50:56;101831.25;;;1.09;79.23
57192;BME280;43052;52.588;13.396;2023-01-26T08:53:22;101834.75;;;1.11;78.82
57192;BME280;43052;52.588;13.396;2023-01-26T08:55:48;101840.06;;;1.14;78.36
57192;BME280;43052;52.588;13.396;2023-01-26T08:58:13;101837.78;;;1.20;78.10
57192;BME280;43052;52.588;13.396;2023-01-26T09:00:39;101834.50;;;1.23;77.64
57192;BME280;43052;52.588;13.396;2023-01-26T09:03:04;101837.97;;;1.23;77.44
57192;BME280;43052;52.588;13.396;2023-01-26T09:05:32;101837.00;;;1.21;77.10
57192;BME280;43052;52.588;13.396;2023-01-26T09:07:58;101845.84;;;1.27;76.51
57192;BME280;43052;52.588;13.396;2023-01-26T09:10:23;101846.72;;;1.27;76.14
57192;BME280;43052;52.588;13.396;2023-01-26T09:12:48;101844.16;;;1.27;75.95
57192;BME280;43052;52.588;13.396;2023-01-26T09:15:14;101853.59;;;1.27;75.38
57192;BME280;43052;52.588;13.396;2023-01-26T09:17:39;101853.13;;;1.17;75.36
57192;BME280;43052;52.588;13.396;2023-01-26T09:20:07;101854.72;;;1.15;75.46
57192;BME280;43052;52.588;13.396;2023-01-26T09:22:33;101851.34;;;1.16;74.77
57192;BME280;43052;52.588;13.396;2023-01-26T09:24:58;101858.28;;;1.17;74.90
57192;BME280;43052;52.588;13.396;2023-01-26T09:27:24;101855.13;;;1.23;74.77
57192;BME280;43052;52.588;13.396;2023-01-26T09:29:49;101864.69;;;1.25;74.41
57192;BME280;43052;52.588;13.396;2023-01-26T09:32:14;101856.06;;;1.25;74.35
57192;BME280;43052;52.588;13.396;2023-01-26T09:34:39;101850.91;;;1.25;73.99
57192;BME280;43052;52.588;13.396;2023-01-26T09:37:06;101849.81;;;1.20;74.28
57192;BME280;43052;52.588;13.396;2023-01-26T09:39:31;101843.91;;;1.22;73.96
57192;BME280;43052;52.588;13.396;2023-01-26T09:42:15;101852.44;;;1.21;74.19
57192;BME280;43052;52.588;13.396;2023-01-26T09:44:48;101844.88;;;1.24;73.82
57192;BME280;43052;52.588;13.396;2023-01-26T09:47:24;101842.31;;;1.24;73.66
57192;BME280;43052;52.588;13.396;2023-01-26T09:50:07;101840.69;;;1.27;73.88
57192;BME280;43052;52.588;13.396;2023-01-26T09:52:39;101848.25;;;1.23;73.46
57192;BME280;43052;52.588;13.396;2023-01-26T09:55:16;101851.72;;;1.24;73.33
57192;BME280;43052;52.588;13.396;2023-01-26T09:57:46;101850.38;;;1.14;73.08
57192;BME280;43052;52.588;13.396;2023-01-26T10:00:22;101857.00;;;1.09;73.48
57192;BME280;43052;52.588;13.396;2023-01-26T10:03:15;101851.06;;;1.10;73.20
57192;BME280;43052;52.588;13.396;2023-01-26T10:08:34;101841.03;;;1.16;73.41
57192;BME280;43052;52.588;13.396;2023-01-26T10:11:03;101833.31;;;1.16;72.94
57192;BME280;43052;52.588;13.396;2023-01-26T10:13:32;101833.53;;;1.21;73.01
57192;BME280;43052;52.588;13.396;2023-01-26T10:16:00;101837.78;;;1.20;72.93
57192;BME280;43052;52.588;13.396;2023-01-26T10:18:31;101838.59;;;1.19;73.08
57192;BME280;43052;52.588;13.396;2023-01-26T10:20:59;101833.31;;;1.16;72.88
57192;BME280;43052;52.588;13.396;2023-01-26T10:23:31;101829.47;;;1.08;73.08
57192;BME280;43052;52.588;13.396;2023-01-26T10:26:15;101830.03;;;1.02;73.42
57192;BME280;43052;52.588;13.396;2023-01-26T10:28:42;101826.72;;;1.05;73.42
57192;BME280;43052;52.588;13.396;2023-01-26T10:31:15;101821.75;;;1.08;73.66
57192;BME280;43052;52.588;13.396;2023-01-26T10:33:47;101818.34;;;1.09;73.59
57192;BME280;43052;52.588;13.396;2023-01-26T10:36:14;101808.97;;;1.11;73.38
57192;BME280;43052;52.588;13.396;2023-01-26T10:38:43;101799.81;;;1.16;73.48
57192;BME280;43052;52.588;13.396;2023-01-26T10:43:51;101792.66;;;1.29;73.28
57192;BME280;43052;52.588;13.396;2023-01-26T10:46:28;101785.09;;;1.32;73.17
57192;BME280;43052;52.588;13.396;2023-01-26T10:48:56;101780.69;;;1.29;72.97
57192;BME280;43052;52.588;13.396;2023-01-26T10:51:31;101771.34;;;1.31;72.88
57192;BME280;43052;52.588;13.396;2023-01-26T10:56:43;101771.16;;;1.46;72.49
57192;BME280;43052;52.588;13.396;2023-01-26T10:59:09;101772.94;;;1.47;72.37
57192;BME280;43052;52.588;13.396;2023-01-26T11:01:51;101776.53;;;1.51;72.33
57192;BME280;43052;52.588;13.396;2023-01-26T11:04:16;101773.47;;;1.58;72.59
57192;BME280;43052;52.588;13.396;2023-01-26T11:06:41;101780.38;;;1.59;72.29
57192;BME280;43052;52.588;13.396;2023-01-26T11:09:17;101784.59;;;1.57;72.15
57192;BME280;43052;52.588;13.396;2023-01-26T11:11:57;101779.56;;;1.60;72.06
57192;BME280;43052;52.588;13.396;2023-01-26T11:14:23;101766.88;;;1.65;72.06
57192;BME280;43052;52.588;13.396;2023-01-26T11:16:54;101765.28;;;1.67;72.04
57192;BME280;43052;52.588;13.396;2023-01-26T11:19:47;101770.28;;;1.64;71.61
57192;BME280;43052;52.588;13.396;2023-01-26T11:27:50;101765.06;;;1.62;71.93
57192;BME280;43052;52.588;13.396;2023-01-26T11:30:42;101765.00;;;1.61;71.64
57192;BME280;43052;52.588;13.396;2023-01-26T11:33:21;101758.81;;;1.57;71.78
57192;BME280;43052;52.588;13.396;2023-01-26T11:36:00;101754.53;;;1.58;71.40
57192;BME280;43052;52.588;13.396;2023-01-26T11:38:34;101758.06;;;1.60;71.65
57192;BME280;43052;52.588;13.396;2023-01-26T11:41:37;101759.03;;;1.62;71.45
57192;BME280;43052;52.588;13.396;2023-01-26T11:47:12;101751.72;;;1.71;70.89
57192;BME280;43052;52.588;13.396;2023-01-26T11:50:38;101749.22;;;1.72;70.84
57192;BME280;43052;52.588;13.396;2023-01-26T11:53:05;101745.28;;;1.81;70.84
57192;BME280;43052;52.588;13.396;2023-01-26T11:56:05;101728.09;;;1.81;70.62
57192;BME280;43052;52.588;13.396;2023-01-26T11:58:45;101740.41;;;1.87;70.59
57192;BME280;43052;52.588;13.396;2023-01-26T12:01:21;101722.84;;;1.98;70.19
57192;BME280;43052;52.588;13.396;2023-01-26T12:03:52;101721.34;;;2.03;69.63
57192;BME280;43052;52.588;13.396;2023-01-26T12:06:36;101717.25;;;2.08;69.47
57192;BME280;43052;52.588;13.396;2023-01-26T12:09:26;101717.47;;;2.13;69.40
57192;BME280;43052;52.588;13.396;2023-01-26T12:12:02;101717.75;;;2.19;68.99
57192;BME280;43052;52.588;13.396;2023-01-26T12:14:43;101717.81;;;2.21;68.82
57192;BME280;43052;52.588;13.396;2023-01-26T12:17:26;101717.97;;;2.24;68.56
57192;BME280;43052;52.588;13.396;2023-01-26T12:22:57;101703.00;;;2.16;68.33
57192;BME280;43052;52.588;13.396;2023-01-26T12:25:33;101704.25;;;2.05;68.47
57192;BME280;43052;52.588;13.396;2023-01-26T12:28:13;101692.09;;;2.02;68.36
57192;BME280;43052;52.588;13.396;2023-01-26T12:30:52;101692.81;;;2.00;68.46
57192;BME280;43052;52.588;13.396;2023-01-26T12:33:20;101690.19;;;1.98;68.51
57192;BME280;43052;52.588;13.396;2023-01-26T12:36:27;101693.44;;;1.75;69.07
57192;BME280;43052;52.588;13.396;2023-01-26T12:39:02;101688.19;;;1.73;69.11
57192;BME280;43052;52.588;13.396;2023-01-26T12:41:58;101685.47;;;1.70;68.93
57192;BME280;43052;52.588;13.396;2023-01-26T12:44:32;101678.59;;;1.70;68.91
57192;BME280;43052;52.588;13.396;2023-01-26T12:47:06;101670.22;;;1.75;68.77
57192;BME280;43052;52.588;13.396;2023-01-26T12:49:39;101666.72;;;1.74;68.71
57192;BME280;43052;52.588;13.396;2023-01-26T12:52:14;101664.97;;;1.73;68.62
57192;BME280;43052;52.588;13.396;2023-01-26T12:54:43;101672.09;;;1.79;68.91
57192;BME280;43052;52.588;13.396;2023-01-26T12:57:15;101679.19;;;1.83;68.68
57192;BME280;43052;52.588;13.396;2023-01-26T12:59:41;101685.22;;;1.83;68.93
57192;BME280;43052;52.588;13.396;2023-01-26T13:02:21;101678.88;;;1.77;68.90
57192;BME280;43052;52.588;13.396;2023-01-26T13:04:49;101679.78;;;1.77;68.85
57192;BME280;43052;52.588;13.396;2023-01-26T13:07:36;101685.00;;;1.79;68.90
57192;BME280;43052;52.588;13.396;2023-01-26T13:10:19;101679.78;;;1.77;68.75
57192;BME280;43052;52.588;13.396;2023-01-26T13:15:24;101699.31;;;1.72;68.68
57192;BME280;43052;52.588;13.396;2023-01-26T13:17:53;101697.41;;;1.68;68.67
57192;BME280;43052;52.588;13.396;2023-01-26T13:22:50;101697.53;;;1.51;69.08
57192;BME280;43052;52.588;13.396;2023-01-26T13:25:19;101697.72;;;1.56;69.06
57192;BME280;43052;52.588;13.396;2023-01-26T13:28:00;101699.41;;;1.55;68.89
57192;BME280;43052;52.588;13.396;2023-01-26T13:30:32;101706.13;;;1.52;68.99
57192;BME280;43052;52.588;13.396;2023-01-26T13:33:08;101708.63;;;1.50;68.99
57192;BME280;43052;52.588;13.396;2023-01-26T13:35:35;101698.53;;;1.55;68.62
57192;BME280;43052;52.588;13.396;2023-01-26T13:38:10;101703.47;;;1.50;68.99
57192;BME280;43052;52.588;13.396;2023-01-26T13:40:44;101710.34;;;1.50;69.36
57192;BME280;43052;52.588;13.396;2023-01-26T13:43:16;101708.28;;;1.43;69.25
57192;BME280;43052;52.588;13.396;2023-01-26T13:48:43;101717.81;;;1.25;69.52
57192;BME280;43052;52.588;13.396;2023-01-26T13:51:15;101723.53;;;1.20;69.67
57192;BME280;43052;52.588;13.396;2023-01-26T13:54:03;101718.91;;;1.13;69.89
57192;BME280;43052;52.588;13.396;2023-01-26T13:56:32;101719.78;;;1.13;69.66
57192;BME280;43052;52.588;13.396;2023-01-26T14:01:31;101720.28;;;1.06;70.22
57192;BME280;43052;52.588;13.396;2023-01-26T14:04:04;101716.53;;;0.99;70.38
57192;BME280;43052;52.588;13.396;2023-01-26T14:06:30;101727.16;;;1.05;70.45
57192;BME280;43052;52.588;13.396;2023-01-26T14:08:56;101720.56;;;1.12;70.34
57192;BME280;43052;52.588;13.396;2023-01-26T14:11:25;101718.31;;;1.18;69.94
57192;BME280;43052;52.588;13.396;2023-01-26T14:13:53;101720.28;;;1.24;70.06
57192;BME280;43052;52.588;13.396;2023-01-26T14:16:40;101717.56;;;1.21;70.13
57192;BME280;43052;52.588;13.396;2023-01-26T14:21:45;101719.94;;;1.16;70.33
57192;BME280;43052;52.588;13.396;2023-01-26T14:24:10;101721.53;;;1.14;70.67
57192;BME280;43052;52.588;13.396;2023-01-26T14:26:36;101724.88;;;1.12;70.63
57192;BME280;43052;52.588;13.396;2023-01-26T14:29:02;101717.88;;;1.09;70.49
57192;BME280;43052;52.588;13.396;2023-01-26T14:31:28;101722.06;;;1.07;70.82
57192;BME280;43052;52.588;13.396;2023-01-26T14:33:57;101723.91;;;1.09;71.10
57192;BME280;43052;52.588;13.396;2023-01-26T14:36:27;101727.28;;;1.08;70.88
57192;BME280;43052;52.588;13.396;2023-01-26T14:38:55;101726.75;;;0.98;71.04
57192;BME280;43052;52.588;13.396;2023-01-26T14:41:28;101724.03;;;0.94;71.43
57192;BME280;43052;52.588;13.396;2023-01-26T14:43:56;101719.53;;;0.90;71.74
57192;BME280;43052;52.588;13.396;2023-01-26T14:46:26;101714.22;;;0.87;71.76
57192;BME280;43052;52.588;13.396;2023-01-26T14:49:19;101712.69;;;0.91;71.67
57192;BME280;43052;52.588;13.396;2023-01-26T14:51:43;101720.00;;;1.00;71.33
57192;BME280;43052;52.588;13.396;2023-01-26T14:54:17;101717.19;;;0.95;71.29
57192;BME280;43052;52.588;13.396;2023-01-26T14:56:45;101714.53;;;0.93;71.51
57192;BME280;43052;52.588;13.396;2023-01-26T14:59:21;101722.19;;;0.92;71.71
57192;BME280;43052;52.588;13.396;2023-01-26T15:01:47;101712.91;;;0.96;71.53
57192;BME280;43052;52.588;13.396;2023-01-26T15:04:21;101723.16;;;0.94;71.54
57192;BME280;43052;52.588;13.396;2023-01-26T15:06:48;101714.53;;;0.93;71.78
57192;BME280;43052;52.588;13.396;2023-01-26T15:09:27;101717.94;;;0.92;71.68
57192;BME280;43052;52.588;13.396;2023-01-26T15:11:57;101723.00;;;0.91;71.70
57192;BME280;43052;52.588;13.396;2023-01-26T15:17:38;101731.00;;;0.79;71.97
57192;BME280;43052;52.588;13.396;2023-01-26T15:20:35;101726.88;;;0.83;71.62
57192;BME280;43052;52.588;13.396;2023-01-26T15:22:56;101736.31;;;0.82;71.44
57192;BME280;43052;52.588;13.396;2023-01-26T15:25:23;101736.16;;;0.79;71.37
57192;BME280;43052;52.588;13.396;2023-01-26T15:27:52;101733.34;;;0.74;71.64
57192;BME280;43052;52.588;13.396;2023-01-26T15:30:22;101738.56;;;0.76;71.56
